createdAt,value
2019-02-08T00:00:45.186Z,97677.70
2019-02-08T00:03:14.648Z,97675.55
2019-02-08T00:05:44.238Z,97670.86
2019-02-08T00:08:13.774Z,97677.63
2019-02-08T00:10:43.319Z,97680.64
2019-02-08T00:13:12.759Z,97679.39
2019-02-08T00:15:42.405Z,97682.77
2019-02-08T00:18:12.287Z,97685.75
2019-02-08T00:20:41.825Z,97679.78
2019-02-08T00:23:11.271Z,97678.09
2019-02-08T00:25:41.169Z,97677.23
2019-02-08T00:28:10.704Z,97678.05
2019-02-08T00:30:40.171Z,97676.80
2019-02-08T00:33:09.744Z,97672.57
2019-02-08T00:35:39.440Z,97678.95
2019-02-08T00:38:09.913Z,97678.95
2019-02-08T00:40:39.647Z,97678.52
2019-02-08T00:43:09.167Z,97679.34
2019-02-08T00:45:38.612Z,97684.87
2019-02-08T00:48:08.231Z,97685.31
2019-02-08T00:50:37.675Z,97690.00
2019-02-08T00:53:07.142Z,97689.16
2019-02-08T00:55:36.584Z,97695.09
2019-02-08T00:58:06.472Z,97699.31
2019-02-08T01:00:36.004Z,97701.45
2019-02-08T01:03:06.591Z,97698.90
2019-02-08T01:05:36.123Z,97696.77
2019-02-08T01:08:06.055Z,97695.94
2019-02-08T01:10:35.676Z,97696.77
2019-02-08T01:13:05.781Z,97693.81
2019-02-08T01:15:35.623Z,97687.45
2019-02-08T01:18:05.675Z,97692.55
2019-02-08T01:20:35.144Z,97694.27
2019-02-08T01:23:04.768Z,97695.97
2019-02-08T01:25:34.375Z,97698.50
2019-02-08T01:28:03.824Z,97705.34
2019-02-08T01:30:34.306Z,97701.49
2019-02-08T01:33:03.998Z,97704.05
2019-02-08T01:35:33.536Z,97702.78
2019-02-08T01:38:03.038Z,97704.46
2019-02-08T01:40:39.973Z,97701.06
2019-02-08T01:43:09.957Z,97698.52
2019-02-08T01:45:39.429Z,97699.80
2019-02-08T01:48:09.515Z,97707.43
2019-02-08T01:50:39.051Z,97701.07
2019-02-08T01:53:08.514Z,97698.92
2019-02-08T01:55:37.976Z,97701.47
2019-02-08T01:58:07.569Z,97704.01
2019-02-08T02:00:42.798Z,97702.30
2019-02-08T02:03:12.461Z,97695.94
2019-02-08T02:05:42.047Z,97689.98
2019-02-08T02:08:11.846Z,97696.37
2019-02-08T02:10:44.297Z,97694.22
2019-02-08T02:13:13.883Z,97692.95
2019-02-08T02:15:43.346Z,97697.63
2019-02-08T02:18:13.428Z,97701.03
2019-02-08T02:20:44.419Z,97701.91
2019-02-08T02:23:15.989Z,97697.61
2019-02-08T02:25:45.874Z,97690.80
2019-02-08T02:28:15.479Z,97699.77
2019-02-08T02:30:44.990Z,97702.35
2019-02-08T02:33:15.213Z,97696.41
2019-02-08T02:35:44.812Z,97700.22
2019-02-08T02:38:14.326Z,97702.75
2019-02-08T02:40:43.795Z,97705.32
2019-02-08T02:43:13.306Z,97715.52
2019-02-08T02:45:42.886Z,97712.56
2019-02-08T02:48:13.794Z,97715.08
2019-02-08T02:50:43.391Z,97709.97
2019-02-08T02:53:13.150Z,97715.95
2019-02-08T02:55:42.595Z,97709.99
2019-02-08T02:58:12.130Z,97719.33
2019-02-08T03:00:47.190Z,97711.69
2019-02-08T03:03:17.583Z,97711.70
2019-02-08T03:05:47.212Z,97711.70
2019-02-08T03:08:17.266Z,97707.89
2019-02-08T03:10:47.038Z,97708.29
2019-02-08T03:13:16.547Z,97705.33
2019-02-08T03:15:46.146Z,97716.80
2019-02-08T03:18:15.671Z,97721.79
2019-02-08T03:20:45.204Z,97706.98
2019-02-08T03:23:14.652Z,97714.59
2019-02-08T03:25:44.336Z,97705.28
2019-02-08T03:28:14.044Z,97709.52
2019-02-08T03:30:45.725Z,97712.43
2019-02-08T03:33:15.186Z,97716.22
2019-02-08T03:35:44.775Z,97714.91
2019-02-08T03:38:14.287Z,97716.14
2019-02-08T03:40:43.739Z,97718.33
2019-02-08T03:43:13.272Z,97707.25
2019-02-08T03:45:47.022Z,97715.34
2019-02-08T03:48:16.611Z,97720.08
2019-02-08T03:50:46.091Z,97719.10
2019-02-08T03:53:15.617Z,97712.78
2019-02-08T03:55:45.076Z,97708.16
2019-02-08T03:58:14.678Z,97714.50
2019-02-08T04:00:48.455Z,97712.45
2019-02-08T04:03:17.895Z,97706.13
2019-02-08T04:05:47.404Z,97705.70
2019-02-08T04:08:16.872Z,97706.55
2019-02-08T04:10:46.312Z,97712.48
2019-02-08T04:13:15.764Z,97713.23
2019-02-08T04:15:45.376Z,97714.18
2019-02-08T04:18:14.887Z,97714.59
2019-02-08T04:20:44.377Z,97712.06
2019-02-08T04:23:13.825Z,97714.17
2019-02-08T04:25:43.267Z,97713.74
2019-02-08T04:28:12.729Z,97711.20
2019-02-08T04:30:42.174Z,97710.75
2019-02-08T04:33:11.734Z,97710.33
2019-02-08T04:35:41.168Z,97708.22
2019-02-08T04:38:10.796Z,97708.24
2019-02-08T04:40:40.236Z,97708.68
2019-02-08T04:43:09.745Z,97711.27
2019-02-08T04:45:39.188Z,97706.16
2019-02-08T04:48:08.660Z,97704.42
2019-02-08T04:50:38.098Z,97699.73
2019-02-08T04:53:07.571Z,97703.56
2019-02-08T04:55:37.097Z,97698.07
2019-02-08T04:58:06.548Z,97697.63
2019-02-08T05:00:38.254Z,97698.89
2019-02-08T05:03:07.844Z,97698.03
2019-02-08T05:05:37.289Z,97704.83
2019-02-08T05:08:07.008Z,97711.14
2019-02-08T05:10:36.616Z,97706.09
2019-02-08T05:13:06.216Z,97700.16
2019-02-08T05:15:35.742Z,97695.46
2019-02-08T05:18:05.421Z,97696.33
2019-02-08T05:20:35.018Z,97695.52
2019-02-08T05:23:04.629Z,97698.80
2019-02-08T05:25:34.076Z,97691.66
2019-02-08T05:28:03.624Z,97692.89
2019-02-08T05:30:36.762Z,97692.06
2019-02-08T05:33:07.084Z,97691.25
2019-02-08T05:35:36.614Z,97692.96
2019-02-08T05:38:06.224Z,97690.85
2019-02-08T05:40:35.763Z,97691.28
2019-02-08T05:43:05.848Z,97691.73
2019-02-08T05:45:35.324Z,97695.11
2019-02-08T05:48:05.112Z,97693.44
2019-02-08T05:50:34.560Z,97687.88
2019-02-08T05:53:04.194Z,97684.91
2019-02-08T05:55:34.249Z,97684.92
2019-02-08T05:58:04.206Z,97682.36
2019-02-08T06:00:42.644Z,97687.48
2019-02-08T06:03:12.100Z,97687.03
2019-02-08T06:05:42.177Z,97688.75
2019-02-08T06:08:11.850Z,97684.50
2019-02-08T06:10:41.366Z,97680.66
2019-02-08T06:13:11.526Z,97684.48
2019-02-08T06:15:41.219Z,97684.89
2019-02-08T06:18:11.619Z,97684.92
2019-02-08T06:20:41.490Z,97682.36
2019-02-08T06:23:10.948Z,97684.92
2019-02-08T06:25:40.478Z,97687.05
2019-02-08T06:28:10.003Z,97678.53
2019-02-08T06:30:39.540Z,97687.06
2019-02-08T06:33:09.130Z,97683.23
2019-02-08T06:35:38.910Z,97679.36
2019-02-08T06:38:08.519Z,97678.52
2019-02-08T06:40:44.936Z,97684.05
2019-02-08T06:43:14.635Z,97678.13
2019-02-08T06:45:44.219Z,97685.30
2019-02-08T06:48:13.890Z,97686.97
2019-02-08T06:50:43.336Z,97685.30
2019-02-08T06:53:12.787Z,97684.02
2019-02-08T06:55:42.255Z,97680.16
2019-02-08T06:58:21.137Z,97681.47
2019-02-08T07:00:55.083Z,97688.27
2019-02-08T07:03:31.942Z,97686.14
2019-02-08T07:06:05.821Z,97696.78
2019-02-08T07:08:54.837Z,97698.47
2019-02-08T07:11:37.621Z,97693.81
2019-02-08T07:14:12.528Z,97699.32
2019-02-08T07:16:49.077Z,97702.34
2019-02-08T07:19:35.739Z,97700.64
2019-02-08T07:22:12.914Z,97706.13
2019-02-08T07:24:44.563Z,97709.11
2019-02-08T07:27:21.628Z,97708.70
2019-02-08T07:30:01.530Z,97710.41
2019-02-08T07:32:38.031Z,97714.19
2019-02-08T07:35:28.408Z,97710.80
2019-02-08T07:38:03.158Z,97708.28
2019-02-08T07:40:38.964Z,97705.27
2019-02-08T07:43:13.145Z,97708.68
2019-02-08T07:45:56.358Z,97713.79
2019-02-08T07:48:29.585Z,97715.88
2019-02-08T07:51:01.446Z,97716.75
2019-02-08T07:53:44.465Z,97718.89
2019-02-08T07:56:31.389Z,97720.98
2019-02-08T07:59:02.554Z,97714.11
2019-02-08T08:01:49.817Z,97717.59
2019-02-08T08:04:26.666Z,97722.72
2019-02-08T08:06:58.592Z,97719.32
2019-02-08T08:09:33.381Z,97713.32
2019-02-08T08:12:07.654Z,97716.77
2019-02-08T08:14:56.416Z,97714.56
2019-02-08T08:17:36.271Z,97724.78
2019-02-08T08:20:14.957Z,97714.58
2019-02-08T08:23:02.224Z,97722.28
2019-02-08T08:25:37.971Z,97712.92
2019-02-08T08:28:14.888Z,97718.02
2019-02-08T08:30:52.145Z,97715.88
2019-02-08T08:33:32.020Z,97723.13
2019-02-08T08:36:18.134Z,97710.38
2019-02-08T08:38:57.970Z,97711.23
2019-02-08T08:41:40.772Z,97709.44
2019-02-08T08:44:20.617Z,97711.14
2019-02-08T08:47:11.347Z,97705.64
2019-02-08T08:50:03.091Z,97717.56
2019-02-08T08:52:40.028Z,97719.73
2019-02-08T08:55:54.763Z,97712.45
2019-02-08T08:58:49.646Z,97709.88
2019-02-08T09:01:44.320Z,97642.33
2019-02-08T09:04:39.271Z,97709.07
2019-02-08T09:07:27.986Z,97702.64
2019-02-08T09:10:27.446Z,97699.63
2019-02-08T09:13:26.925Z,97697.97
2019-02-08T09:16:09.622Z,97699.20
2019-02-08T09:19:07.327Z,97706.34
2019-02-08T09:21:41.481Z,97702.57
2019-02-08T09:24:37.785Z,97702.17
2019-02-08T09:27:22.907Z,97705.50
2019-02-08T09:30:11.816Z,97704.66
2019-02-08T09:32:58.084Z,97704.30
2019-02-08T09:35:56.196Z,97710.68
2019-02-08T09:39:07.764Z,97710.70
2019-02-08T09:42:01.054Z,97703.45
2019-02-08T09:45:12.387Z,97698.77
2019-02-08T09:48:23.865Z,97701.70
2019-02-08T09:51:38.140Z,97697.49
2019-02-08T09:54:31.471Z,97693.14
2019-02-08T09:57:14.247Z,97696.55
2019-02-08T10:00:10.660Z,97696.61
2019-02-08T10:03:32.907Z,97704.69
2019-02-08T10:06:21.990Z,97695.80
2019-02-08T10:09:16.770Z,97695.88
2019-02-08T10:12:10.168Z,97694.51
2019-02-08T10:15:06.476Z,97688.13
2019-02-08T10:17:49.133Z,97680.45
2019-02-08T10:20:46.895Z,97686.94
2019-02-08T10:23:52.407Z,97687.78
2019-02-08T10:26:41.267Z,97694.55
2019-02-08T10:29:36.163Z,97693.20
2019-02-08T10:32:32.451Z,97691.94
2019-02-08T10:35:37.585Z,97689.32
2019-02-08T10:38:35.389Z,97689.77
2019-02-08T10:41:30.558Z,97688.05
2019-02-08T10:44:14.731Z,97685.82
2019-02-08T10:47:10.736Z,97682.11
2019-02-08T10:50:14.296Z,97681.59
2019-02-08T10:53:34.591Z,97677.44
2019-02-08T10:56:36.967Z,97674.26
2019-02-08T10:59:52.886Z,97670.34
2019-02-08T11:02:59.564Z,97663.63
2019-02-08T11:06:09.598Z,97650.30
2019-02-08T11:09:17.906Z,97644.38
2019-02-08T11:12:23.441Z,97636.92
2019-02-08T11:15:06.108Z,97641.29
2019-02-08T11:18:08.415Z,97639.95
2019-02-08T11:20:37.879Z,97640.44
2019-02-08T11:23:07.395Z,97644.23
2019-02-08T11:25:36.941Z,97644.63
2019-02-08T11:28:06.394Z,97643.82
2019-02-08T11:30:35.842Z,97633.14
2019-02-08T11:33:06.248Z,97634.23
2019-02-08T11:35:35.691Z,97632.55
2019-02-08T11:38:05.676Z,97628.82
2019-02-08T11:40:35.272Z,97631.42
2019-02-08T11:43:04.990Z,97630.92
2019-02-08T11:45:34.580Z,97625.80
2019-02-08T11:48:04.285Z,97624.16
2019-02-08T11:50:33.793Z,97618.16
2019-02-08T11:53:03.238Z,97609.47
2019-02-08T11:55:32.712Z,97606.02
2019-02-08T11:58:02.841Z,97600.77
2019-02-08T12:00:36.624Z,97597.63
2019-02-08T12:03:07.075Z,97595.01
2019-02-08T12:05:36.606Z,97581.66
2019-02-08T12:08:07.956Z,97580.02
2019-02-08T12:10:37.399Z,97576.89
2019-02-08T12:13:06.871Z,97574.03
2019-02-08T12:15:36.578Z,97567.05
2019-02-08T12:18:06.193Z,97565.02
2019-02-08T12:20:35.704Z,97569.23
2019-02-08T12:23:05.412Z,97560.57
2019-02-08T12:25:34.851Z,97561.09
2019-02-08T12:28:04.738Z,97555.36
2019-02-08T12:30:41.109Z,97549.91
2019-02-08T12:33:10.555Z,97552.85
2019-02-08T12:35:40.004Z,97543.00
2019-02-08T12:38:09.473Z,97536.64
2019-02-08T12:40:38.945Z,97533.63
2019-02-08T12:43:08.413Z,97534.38
2019-02-08T12:45:37.948Z,97537.13
2019-02-08T12:48:07.638Z,97525.58
2019-02-08T12:50:37.230Z,97521.23
2019-02-08T12:53:06.696Z,97517.46
2019-02-08T12:55:36.137Z,97517.98
2019-02-08T12:58:05.588Z,97516.42
2019-02-08T13:00:35.045Z,97520.09
2019-02-08T13:03:04.494Z,97512.78
2019-02-08T13:05:33.954Z,97512.45
2019-02-08T13:08:03.416Z,97505.74
2019-02-08T13:10:32.941Z,97498.12
2019-02-08T13:13:02.876Z,97500.48
2019-02-08T13:15:32.588Z,97495.06
2019-02-08T13:18:02.895Z,97490.02
2019-02-08T13:20:32.334Z,97492.87
2019-02-08T13:23:02.964Z,97481.45
2019-02-08T13:25:32.411Z,97484.50
2019-02-08T13:28:03.127Z,97484.93
2019-02-08T13:30:34.189Z,97475.77
2019-02-08T13:33:03.796Z,97476.86
2019-02-08T13:35:33.414Z,97466.80
2019-02-08T13:38:02.893Z,97473.09
2019-02-08T13:40:32.626Z,97468.00
2019-02-08T13:43:02.881Z,97465.28
2019-02-08T13:45:32.331Z,97462.47
2019-02-08T13:48:02.907Z,97461.31
2019-02-08T13:50:34.679Z,97465.48
2019-02-08T13:53:04.195Z,97456.75
2019-02-08T13:55:33.642Z,97450.13
2019-02-08T13:58:03.108Z,97449.34
2019-02-08T14:00:36.702Z,97447.26
2019-02-08T14:03:07.872Z,97442.45
2019-02-08T14:05:37.457Z,97439.87
2019-02-08T14:08:07.544Z,97432.49
2019-02-08T14:10:37.005Z,97433.08
2019-02-08T14:13:06.722Z,97420.81
2019-02-08T14:15:37.251Z,97414.14
2019-02-08T14:18:06.763Z,97410.41
2019-02-08T14:20:36.291Z,97412.22
2019-02-08T14:23:05.808Z,97412.27
2019-02-08T14:25:35.272Z,97416.80
2019-02-08T14:28:04.860Z,97412.27
2019-02-08T14:30:41.205Z,97416.25
2019-02-08T14:33:10.896Z,97411.63
2019-02-08T14:35:40.724Z,97409.50
2019-02-08T14:38:15.239Z,97411.36
2019-02-08T14:40:44.682Z,97412.50
2019-02-08T14:43:14.144Z,97406.64
2019-02-08T14:45:43.664Z,97403.83
2019-02-08T14:48:13.189Z,97412.02
2019-02-08T14:50:42.635Z,97403.43
2019-02-08T14:53:12.104Z,97399.09
2019-02-08T14:55:41.620Z,97393.96
2019-02-08T14:58:11.139Z,97394.22
2019-02-08T15:00:40.610Z,97385.53
2019-02-08T15:03:10.056Z,97384.59
2019-02-08T15:05:39.498Z,97380.20
2019-02-08T15:08:08.964Z,97381.00
2019-02-08T15:10:49.080Z,97373.49
2019-02-08T15:13:18.551Z,97372.36
2019-02-08T15:15:48.061Z,97373.04
2019-02-08T15:18:18.707Z,97363.46
2019-02-08T15:20:48.255Z,97370.73
2019-02-08T15:23:17.767Z,97367.87
2019-02-08T15:25:47.229Z,97353.12
2019-02-08T15:28:16.928Z,97344.98
2019-02-08T15:30:46.373Z,97343.01
2019-02-08T15:33:15.938Z,97341.05
2019-02-08T15:35:45.387Z,97344.35
2019-02-08T15:38:14.831Z,97331.67
2019-02-08T15:40:48.306Z,97330.41
2019-02-08T15:43:20.680Z,97332.63
2019-02-08T15:45:59.100Z,97334.23
2019-02-08T15:48:28.568Z,97333.61
2019-02-08T15:50:58.107Z,97322.55
2019-02-08T15:53:27.553Z,97312.31
2019-02-08T15:56:10.981Z,97318.71
2019-02-08T15:58:40.444Z,97314.44
2019-02-08T16:01:11.509Z,97311.59
2019-02-08T16:03:40.964Z,97309.80
2019-02-08T16:06:10.716Z,97305.45
2019-02-08T16:08:40.260Z,97311.71
2019-02-08T16:11:09.856Z,97300.75
2019-02-08T16:13:39.318Z,97296.22
2019-02-08T16:16:09.194Z,97295.09
2019-02-08T16:18:38.644Z,97294.00
2019-02-08T16:21:08.162Z,97288.44
2019-02-08T16:23:37.743Z,97293.55
2019-02-08T16:26:07.313Z,97290.02
2019-02-08T16:28:36.877Z,97287.12
2019-02-08T16:31:06.723Z,97283.38
2019-02-08T16:33:36.243Z,97291.45
2019-02-08T16:36:06.607Z,97280.72
2019-02-08T16:38:36.040Z,97278.72
2019-02-08T16:41:06.098Z,97265.79
2019-02-08T16:43:35.604Z,97269.97
2019-02-08T16:46:05.806Z,97271.09
2019-02-08T16:48:35.393Z,97261.56
2019-02-08T16:51:05.056Z,97264.79
2019-02-08T16:53:34.577Z,97270.69
2019-02-08T16:56:04.231Z,97262.95
2019-02-08T16:58:34.009Z,97262.73
2019-02-08T17:01:03.773Z,97258.16
2019-02-08T17:03:33.284Z,97255.98
2019-02-08T17:06:02.857Z,97251.50
2019-02-08T17:08:32.399Z,97251.27
2019-02-08T17:11:01.873Z,97245.20
2019-02-08T17:13:33.574Z,97242.30
2019-02-08T17:16:03.242Z,97234.66
2019-02-08T17:18:32.814Z,97228.25
2019-02-08T17:21:02.372Z,97231.89
2019-02-08T17:23:31.876Z,97231.39
2019-02-08T17:26:01.375Z,97225.48
2019-02-08T17:28:30.965Z,97225.80
2019-02-08T17:31:00.446Z,97217.31
2019-02-08T17:33:30.055Z,97217.56
2019-02-08T17:35:59.583Z,97217.00
2019-02-08T17:38:29.622Z,97218.55
2019-02-08T17:40:59.085Z,97214.33
2019-02-08T17:43:28.613Z,97201.47
2019-02-08T17:45:58.118Z,97205.34
2019-02-08T17:48:27.583Z,97206.09
2019-02-08T17:50:57.039Z,97202.52
2019-02-08T17:53:26.505Z,97200.44
2019-02-08T17:55:55.967Z,97199.49
2019-02-08T17:58:25.424Z,97196.93
2019-02-08T18:00:56.520Z,97206.46
2019-02-08T18:03:26.060Z,97197.66
2019-02-08T18:05:55.497Z,97191.80
2019-02-08T18:08:26.579Z,97191.38
2019-02-08T18:10:56.104Z,97187.45
2019-02-08T18:13:25.556Z,97183.02
2019-02-08T18:15:55.012Z,97178.81
2019-02-08T18:18:24.458Z,97177.31
2019-02-08T18:20:58.009Z,97171.35
2019-02-08T18:23:27.477Z,97174.14
2019-02-08T18:25:57.132Z,97172.89
2019-02-08T18:28:28.138Z,97175.13
2019-02-08T18:30:57.594Z,97178.38
2019-02-08T18:33:27.057Z,97184.01
2019-02-08T18:35:56.501Z,97185.84
2019-02-08T18:38:25.954Z,97187.23
2019-02-08T18:40:55.654Z,97178.65
2019-02-08T18:43:25.121Z,97164.94
2019-02-08T18:45:54.564Z,97161.70
2019-02-08T18:48:24.035Z,97148.84
2019-02-08T18:50:55.234Z,97136.45
2019-02-08T18:53:24.688Z,97128.06
2019-02-08T18:55:54.129Z,97119.11
2019-02-08T18:58:23.602Z,97108.85
2019-02-08T19:00:54.676Z,97104.03
2019-02-08T19:03:24.898Z,97099.44
2019-02-08T19:05:54.335Z,97105.97
2019-02-08T19:08:23.801Z,97094.80
2019-02-08T19:10:53.315Z,97098.33
2019-02-08T19:13:22.785Z,97096.78
2019-02-08T19:15:52.375Z,97088.83
2019-02-08T19:18:21.817Z,97087.03
2019-02-08T19:20:51.294Z,97088.77
2019-02-08T19:23:20.748Z,97083.13
2019-02-08T19:25:50.349Z,97082.02
2019-02-08T19:28:26.385Z,97087.22
2019-02-08T19:30:51.049Z,97087.03
2019-02-08T19:33:20.487Z,97078.82
2019-02-08T19:35:49.927Z,97073.38
2019-02-08T19:38:19.466Z,97063.71
2019-02-08T19:40:49.388Z,97061.83
2019-02-08T19:43:18.859Z,97062.29
2019-02-08T19:45:48.440Z,97051.06
2019-02-08T19:48:17.886Z,97053.11
2019-02-08T19:50:50.080Z,97056.31
2019-02-08T19:53:19.540Z,97053.75
2019-02-08T19:55:49.065Z,97046.09
2019-02-08T19:58:18.537Z,97047.16
2019-02-08T20:00:47.977Z,97034.73
2019-02-08T20:03:17.505Z,97038.63
2019-02-08T20:05:47.044Z,97033.95
2019-02-08T20:08:16.567Z,97035.77
2019-02-08T20:10:49.194Z,97032.41
2019-02-08T20:13:18.656Z,97023.20
2019-02-08T20:15:48.102Z,97020.30
2019-02-08T20:18:17.651Z,97020.73
2019-02-08T20:20:47.096Z,97017.81
2019-02-08T20:23:16.571Z,97018.83
2019-02-08T20:25:46.452Z,97018.63
2019-02-08T20:28:15.916Z,97016.91
2019-02-08T20:30:45.378Z,97021.31
2019-02-08T20:33:14.903Z,97002.78
2019-02-08T20:35:44.346Z,96999.47
2019-02-08T20:38:14.060Z,96999.52
2019-02-08T20:40:49.923Z,96995.37
2019-02-08T20:43:19.386Z,96989.84
2019-02-08T20:45:48.841Z,96988.09
2019-02-08T20:48:21.454Z,96993.23
2019-02-08T20:50:50.986Z,96989.52
2019-02-08T20:53:20.885Z,96989.15
2019-02-08T20:55:52.232Z,96990.09
2019-02-08T20:58:22.071Z,96983.02
2019-02-08T21:00:53.161Z,96979.88
2019-02-08T21:03:23.632Z,96978.53
2019-02-08T21:05:53.244Z,96979.46
2019-02-08T21:08:22.838Z,96972.69
2019-02-08T21:10:52.538Z,96962.30
2019-02-08T21:13:21.988Z,96960.37
2019-02-08T21:15:51.443Z,96952.17
2019-02-08T21:18:20.912Z,96954.14
2019-02-08T21:20:50.723Z,96941.64
2019-02-08T21:23:20.177Z,96939.10
2019-02-08T21:25:51.694Z,96945.53
2019-02-08T21:28:20.819Z,96929.81
2019-02-08T21:30:50.337Z,96927.08
2019-02-08T21:33:19.828Z,96914.97
2019-02-08T21:35:49.652Z,96908.42
2019-02-08T21:38:20.191Z,96905.12
2019-02-08T21:40:49.706Z,96900.34
2019-02-08T21:43:19.165Z,96907.64
2019-02-08T21:45:48.613Z,96900.00
2019-02-08T21:48:18.068Z,96892.77
2019-02-08T21:50:47.611Z,96894.08
2019-02-08T21:53:17.144Z,96889.48
2019-02-08T21:55:46.602Z,96882.86
2019-02-08T21:58:16.070Z,96872.23
2019-02-08T22:00:45.699Z,96869.64
2019-02-08T22:03:15.387Z,96867.71
2019-02-08T22:05:49.214Z,96864.44
2019-02-08T22:08:18.926Z,96863.05
2019-02-08T22:10:48.373Z,96854.40
2019-02-08T22:13:17.833Z,96849.17
2019-02-08T22:15:47.616Z,96856.20
2019-02-08T22:18:17.138Z,96852.47
2019-02-08T22:20:46.599Z,96847.11
2019-02-08T22:23:16.042Z,96848.28
2019-02-08T22:25:45.505Z,96842.42
2019-02-08T22:28:14.952Z,96839.74
2019-02-08T22:30:44.468Z,96841.61
2019-02-08T22:33:13.932Z,96832.39
2019-02-08T22:35:43.445Z,96836.05
2019-02-08T22:38:12.895Z,96826.92
2019-02-08T22:40:42.374Z,96825.47
2019-02-08T22:43:11.810Z,96829.77
2019-02-08T22:45:43.087Z,96832.08
2019-02-08T22:48:12.609Z,96837.97
2019-02-08T22:50:42.053Z,96832.64
2019-02-08T22:53:11.666Z,96826.61
2019-02-08T22:55:41.108Z,96832.59
2019-02-08T22:58:10.728Z,96831.48
2019-02-08T23:00:54.068Z,96813.55
2019-02-08T23:03:23.519Z,96816.36
2019-02-08T23:05:52.968Z,96825.52
2019-02-08T23:08:22.437Z,96827.53
2019-02-08T23:10:51.879Z,96820.63
2019-02-08T23:13:21.336Z,96821.48
2019-02-08T23:15:50.825Z,96803.09
2019-02-08T23:18:20.277Z,96802.78
2019-02-08T23:20:49.821Z,96802.03
2019-02-08T23:23:19.284Z,96783.38
2019-02-08T23:25:48.726Z,96772.99
2019-02-08T23:28:18.193Z,96774.85
2019-02-08T23:30:47.636Z,96764.41
2019-02-08T23:33:17.147Z,96775.19
2019-02-08T23:35:46.612Z,96764.91
2019-02-08T23:38:16.059Z,96764.86
2019-02-08T23:40:45.523Z,96758.61
2019-02-08T23:43:15.042Z,96755.69
2019-02-08T23:45:44.505Z,96754.77
2019-02-08T23:48:13.954Z,96740.30
2019-02-08T23:50:43.423Z,96730.52
2019-02-08T23:53:12.884Z,96735.92
2019-02-08T23:55:42.325Z,96721.92
2019-02-08T23:58:11.846Z,96723.65
